KSRR

Sierra Blanca Regional Airport

Ruidoso, New Mexico, USA
METAR KSRR 162155Z AUTO 14008KT 10SM CLR 12/M14 A3033 RMK AO2
Observed Flight Rules
Dec-16 @ 21:55 UTC (8 minutes ago) Visual Flight Rules
Wind Visibility Clouds
140° at 8 knots 10 miles
  • Clear skies
Temperatures Readings
Current 12°C / 54°F
Dewpoint -14°C / 7°F
Humidity 15%
Altimeter 30.33" Hg
Pressure 1027 hPa
Elevation 2076
METAR KSRR 162155Z AUTO 14008KT 10SM CLR 12/M14 A3033 RMK AO2
Observed Flight Rules
Dec-16 @ 21:55 UTC
(8 minutes ago)
VFR
Wind Visibility
140° at 8 knots 10 miles
Clouds
  • Clear skies
Temperature Dewpoint
12°C / 54°F -14°C / 7°F
Humidity Altimeter Pressure
15% 30.33" Hg 1027 hPa